Terminal Aerodrome Forecast
Issued by NWS Grand Junction, CO

Home | Current Version | Previous Version | Text Only | Print | Product List | Glossary On
Versions: 1 2 3 4 5 6 7 8 9 10 11 12 13 14 15 16 17 18 19
000
FTUS45 KGJT 231729
TAFGJT
TAF
KGJT 231729Z 2318/2418 15007KT P6SM SCT250
     FM232000 28007KT P6SM FEW140 SCT250
     FM240100 07006KT P6SM SCT250
     FM240700 11010KT P6SM SCT250=

USA.gov is the U.S. government's official web portal to all federal, state and local government web resources and services.